sensor_id;sensor_type;location;lat;lon;timestamp;pressure;altitude;pressure_sealevel;temperature;humidity
16664;BME280;8445;51.270;9.434;2023-05-19T00:01:06;100392.69;;;18.66;31.11
16664;BME280;8445;51.270;9.434;2023-05-19T00:03:33;100394.69;;;18.54;31.32
16664;BME280;8445;51.270;9.434;2023-05-19T00:06:01;100391.84;;;18.56;31.24
16664;BME280;8445;51.270;9.434;2023-05-19T00:08:29;100393.25;;;18.60;31.04
16664;BME280;8445;51.270;9.434;2023-05-19T00:10:56;100399.44;;;18.70;30.79
16664;BME280;8445;51.270;9.434;2023-05-19T00:13:22;100389.50;;;18.90;30.29
16664;BME280;8445;51.270;9.434;2023-05-19T00:15:48;100393.66;;;18.65;30.87
16664;BME280;8445;51.270;9.434;2023-05-19T00:18:15;100390.13;;;18.74;30.58
16664;BME280;8445;51.270;9.434;2023-05-19T00:20:41;100394.81;;;18.52;30.88
16664;BME280;8445;51.270;9.434;2023-05-19T00:23:07;100399.19;;;18.54;31.16
16664;BME280;8445;51.270;9.434;2023-05-19T00:25:32;100398.75;;;18.68;30.79
16664;BME280;8445;51.270;9.434;2023-05-19T00:27:57;100394.97;;;18.41;31.08
16664;BME280;8445;51.270;9.434;2023-05-19T00:30:24;100387.66;;;18.33;31.01
16664;BME280;8445;51.270;9.434;2023-05-19T00:32:50;100388.84;;;18.69;30.31
16664;BME280;8445;51.270;9.434;2023-05-19T00:35:16;100382.41;;;18.51;30.46
16664;BME280;8445;51.270;9.434;2023-05-19T00:37:41;100384.00;;;18.25;30.91
16664;BME280;8445;51.270;9.434;2023-05-19T00:40:08;100382.31;;;18.24;31.17
16664;BME280;8445;51.270;9.434;2023-05-19T00:42:34;100383.00;;;18.16;31.07
16664;BME280;8445;51.270;9.434;2023-05-19T00:45:00;100389.94;;;18.18;30.93
16664;BME280;8445;51.270;9.434;2023-05-19T00:47:25;100388.50;;;18.04;31.31
16664;BME280;8445;51.270;9.434;2023-05-19T00:49:51;100379.69;;;17.53;32.67
16664;BME280;8445;51.270;9.434;2023-05-19T00:52:16;100376.03;;;17.74;31.77
16664;BME280;8445;51.270;9.434;2023-05-19T00:54:43;100377.75;;;17.75;31.91
16664;BME280;8445;51.270;9.434;2023-05-19T00:57:08;100382.28;;;17.94;31.31
16664;BME280;8445;51.270;9.434;2023-05-19T00:59:34;100381.84;;;17.99;30.91
16664;BME280;8445;51.270;9.434;2023-05-19T01:02:00;100382.44;;;18.02;31.07
16664;BME280;8445;51.270;9.434;2023-05-19T01:04:27;100382.13;;;17.86;30.92
16664;BME280;8445;51.270;9.434;2023-05-19T01:06:54;100383.72;;;18.08;30.66
16664;BME280;8445;51.270;9.434;2023-05-19T01:09:21;100379.34;;;18.07;30.76
16664;BME280;8445;51.270;9.434;2023-05-19T01:11:48;100375.81;;;18.06;30.63
16664;BME280;8445;51.270;9.434;2023-05-19T01:14:14;100379.19;;;17.99;30.27
16664;BME280;8445;51.270;9.434;2023-05-19T01:16:43;100373.81;;;17.79;30.35
16664;BME280;8445;51.270;9.434;2023-05-19T01:24:33;100372.34;;;17.45;30.65
16664;BME280;8445;51.270;9.434;2023-05-19T01:27:36;100367.59;;;17.59;31.45
16664;BME280;8445;51.270;9.434;2023-05-19T01:33:13;100365.59;;;17.51;30.25
16664;BME280;8445;51.270;9.434;2023-05-19T01:35:40;100363.88;;;17.40;30.36
16664;BME280;8445;51.270;9.434;2023-05-19T01:38:08;100370.06;;;17.31;30.64
16664;BME280;8445;51.270;9.434;2023-05-19T01:40:36;100367.63;;;17.18;30.99
16664;BME280;8445;51.270;9.434;2023-05-19T01:43:02;100364.94;;;17.18;30.64
16664;BME280;8445;51.270;9.434;2023-05-19T01:45:30;100357.59;;;17.10;30.73
16664;BME280;8445;51.270;9.434;2023-05-19T01:47:59;100366.47;;;17.11;30.66
16664;BME280;8445;51.270;9.434;2023-05-19T01:50:26;100357.72;;;17.09;30.55
16664;BME280;8445;51.270;9.434;2023-05-19T01:52:52;100360.09;;;17.02;30.39
16664;BME280;8445;51.270;9.434;2023-05-19T01:55:17;100362.38;;;17.07;30.21
16664;BME280;8445;51.270;9.434;2023-05-19T02:03:15;100367.41;;;17.00;31.41
16664;BME280;8445;51.270;9.434;2023-05-19T02:06:06;100369.19;;;17.21;32.33
16664;BME280;8445;51.270;9.434;2023-05-19T02:08:50;100368.16;;;17.12;31.06
16664;BME280;8445;51.270;9.434;2023-05-19T02:11:24;100367.16;;;17.13;31.01
16664;BME280;8445;51.270;9.434;2023-05-19T02:13:55;100372.53;;;17.13;30.78
16664;BME280;8445;51.270;9.434;2023-05-19T02:16:26;100367.16;;;17.13;31.35
16664;BME280;8445;51.270;9.434;2023-05-19T02:18:52;100369.41;;;17.08;30.58
16664;BME280;8445;51.270;9.434;2023-05-19T02:21:18;100370.53;;;17.05;30.46
16664;BME280;8445;51.270;9.434;2023-05-19T02:23:44;100374.47;;;17.11;30.13
16664;BME280;8445;51.270;9.434;2023-05-19T02:26:09;100366.88;;;17.06;30.55
16664;BME280;8445;51.270;9.434;2023-05-19T02:28:35;100373.88;;;16.97;30.54
16664;BME280;8445;51.270;9.434;2023-05-19T02:31:01;100367.06;;;16.93;30.44
16664;BME280;8445;51.270;9.434;2023-05-19T02:33:27;100365.91;;;16.86;30.72
16664;BME280;8445;51.270;9.434;2023-05-19T02:35:55;100368.41;;;16.78;30.74
16664;BME280;8445;51.270;9.434;2023-05-19T02:38:22;100364.59;;;16.80;30.52
16664;BME280;8445;51.270;9.434;2023-05-19T02:40:47;100356.88;;;16.77;30.42
16664;BME280;8445;51.270;9.434;2023-05-19T02:43:13;100367.28;;;16.80;30.41
16664;BME280;8445;51.270;9.434;2023-05-19T02:45:39;100359.41;;;16.79;30.56
16664;BME280;8445;51.270;9.434;2023-05-19T02:48:04;100359.94;;;16.72;30.52
16664;BME280;8445;51.270;9.434;2023-05-19T02:50:30;100357.34;;;16.61;30.73
16664;BME280;8445;51.270;9.434;2023-05-19T02:52:55;100352.53;;;16.55;30.62
16664;BME280;8445;51.270;9.434;2023-05-19T02:55:21;100356.31;;;16.52;30.54
16664;BME280;8445;51.270;9.434;2023-05-19T02:57:46;100347.41;;;16.42;30.35
16664;BME280;8445;51.270;9.434;2023-05-19T03:00:12;100358.06;;;16.42;30.69
16664;BME280;8445;51.270;9.434;2023-05-19T03:02:38;100355.03;;;16.47;30.72
16664;BME280;8445;51.270;9.434;2023-05-19T03:05:04;100352.63;;;16.43;30.71
16664;BME280;8445;51.270;9.434;2023-05-19T03:07:29;100345.66;;;16.31;31.20
16664;BME280;8445;51.270;9.434;2023-05-19T03:09:55;100345.91;;;16.28;31.03
16664;BME280;8445;51.270;9.434;2023-05-19T03:12:20;100344.47;;;16.24;30.94
16664;BME280;8445;51.270;9.434;2023-05-19T03:14:46;100349.09;;;16.22;30.99
16664;BME280;8445;51.270;9.434;2023-05-19T03:17:11;100351.75;;;16.22;31.25
16664;BME280;8445;51.270;9.434;2023-05-19T03:19:37;100358.47;;;16.16;31.42
16664;BME280;8445;51.270;9.434;2023-05-19T03:22:02;100349.19;;;16.20;30.90
16664;BME280;8445;51.270;9.434;2023-05-19T03:24:29;100354.44;;;16.22;31.30
16664;BME280;8445;51.270;9.434;2023-05-19T03:26:54;100353.97;;;16.17;31.02
16664;BME280;8445;51.270;9.434;2023-05-19T03:29:20;100354.47;;;16.10;31.20
16664;BME280;8445;51.270;9.434;2023-05-19T03:31:46;100349.59;;;16.15;31.26
16664;BME280;8445;51.270;9.434;2023-05-19T03:34:13;100352.16;;;16.17;31.14
16664;BME280;8445;51.270;9.434;2023-05-19T03:36:38;100354.53;;;16.20;30.83
16664;BME280;8445;51.270;9.434;2023-05-19T03:39:07;100355.16;;;16.24;31.11
16664;BME280;8445;51.270;9.434;2023-05-19T03:41:33;100353.00;;;16.39;30.89
16664;BME280;8445;51.270;9.434;2023-05-19T03:43:59;100360.53;;;16.34;30.98
16664;BME280;8445;51.270;9.434;2023-05-19T03:46:25;100352.94;;;16.29;31.17
16664;BME280;8445;51.270;9.434;2023-05-19T03:48:59;100359.25;;;16.28;31.17
16664;BME280;8445;51.270;9.434;2023-05-19T03:51:43;100359.50;;;16.25;31.44
16664;BME280;8445;51.270;9.434;2023-05-19T03:54:20;100359.38;;;16.26;31.33
16664;BME280;8445;51.270;9.434;2023-05-19T03:56:47;100353.91;;;16.28;31.20
16664;BME280;8445;51.270;9.434;2023-05-19T03:59:12;100352.94;;;16.29;31.40
16664;BME280;8445;51.270;9.434;2023-05-19T04:01:38;100353.66;;;16.31;31.11
16664;BME280;8445;51.270;9.434;2023-05-19T04:04:03;100358.47;;;16.37;31.43
16664;BME280;8445;51.270;9.434;2023-05-19T04:06:29;100359.19;;;16.39;31.27
16664;BME280;8445;51.270;9.434;2023-05-19T04:08:55;100355.28;;;16.43;31.31
16664;BME280;8445;51.270;9.434;2023-05-19T04:11:20;100360.94;;;16.50;31.52
16664;BME280;8445;51.270;9.434;2023-05-19T04:13:46;100352.94;;;16.50;31.36
16664;BME280;8445;51.270;9.434;2023-05-19T04:16:11;100364.19;;;16.54;31.81
16664;BME280;8445;51.270;9.434;2023-05-19T04:18:37;100359.81;;;16.53;31.64
16664;BME280;8445;51.270;9.434;2023-05-19T04:21:03;100367.56;;;16.56;31.87
16664;BME280;8445;51.270;9.434;2023-05-19T04:23:28;100362.22;;;16.56;31.63
16664;BME280;8445;51.270;9.434;2023-05-19T04:25:54;100367.25;;;16.70;31.85
16664;BME280;8445;51.270;9.434;2023-05-19T04:28:21;100364.94;;;16.87;31.85
16664;BME280;8445;51.270;9.434;2023-05-19T04:30:48;100363.75;;;17.01;31.95
16664;BME280;8445;51.270;9.434;2023-05-19T04:33:15;100364.66;;;17.21;31.99
16664;BME280;8445;51.270;9.434;2023-05-19T04:35:41;100359.22;;;17.42;31.97
16664;BME280;8445;51.270;9.434;2023-05-19T04:38:09;100361.13;;;17.61;31.79
16664;BME280;8445;51.270;9.434;2023-05-19T04:40:36;100358.19;;;17.84;31.92
16664;BME280;8445;51.270;9.434;2023-05-19T04:43:04;100371.88;;;18.01;31.85
16664;BME280;8445;51.270;9.434;2023-05-19T04:45:31;100366.53;;;18.20;31.91
16664;BME280;8445;51.270;9.434;2023-05-19T04:47:58;100378.19;;;18.39;31.92
16664;BME280;8445;51.270;9.434;2023-05-19T04:50:24;100378.00;;;18.60;31.89
16664;BME280;8445;51.270;9.434;2023-05-19T04:52:51;100374.91;;;18.65;31.70
16664;BME280;8445;51.270;9.434;2023-05-19T04:55:16;100380.81;;;18.78;31.89
16664;BME280;8445;51.270;9.434;2023-05-19T04:57:43;100373.97;;;18.94;31.93
16664;BME280;8445;51.270;9.434;2023-05-19T05:00:09;100373.69;;;19.07;32.02
16664;BME280;8445;51.270;9.434;2023-05-19T05:02:49;100383.41;;;19.36;31.81
16664;BME280;8445;51.270;9.434;2023-05-19T05:05:18;100372.53;;;19.37;31.85
16664;BME280;8445;51.270;9.434;2023-05-19T05:07:43;100376.38;;;19.53;31.77
16664;BME280;8445;51.270;9.434;2023-05-19T05:10:09;100373.66;;;19.63;31.99
16664;BME280;8445;51.270;9.434;2023-05-19T05:12:35;100374.78;;;19.60;32.42
16664;BME280;8445;51.270;9.434;2023-05-19T05:15:00;100377.47;;;19.60;32.44
16664;BME280;8445;51.270;9.434;2023-05-19T05:17:26;100367.91;;;19.76;32.52
16664;BME280;8445;51.270;9.434;2023-05-19T05:19:52;100372.66;;;19.82;32.22
16664;BME280;8445;51.270;9.434;2023-05-19T05:22:19;100369.00;;;19.83;32.21
16664;BME280;8445;51.270;9.434;2023-05-19T05:24:45;100367.72;;;20.05;32.18
16664;BME280;8445;51.270;9.434;2023-05-19T05:27:11;100374.66;;;19.80;32.40
16664;BME280;8445;51.270;9.434;2023-05-19T05:29:38;100372.06;;;19.88;32.05
16664;BME280;8445;51.270;9.434;2023-05-19T05:32:05;100378.84;;;19.92;32.10
16664;BME280;8445;51.270;9.434;2023-05-19T05:34:31;100377.69;;;19.95;31.87
16664;BME280;8445;51.270;9.434;2023-05-19T05:36:56;100374.56;;;19.99;32.07
16664;BME280;8445;51.270;9.434;2023-05-19T05:39:22;100363.31;;;19.86;32.23
16664;BME280;8445;51.270;9.434;2023-05-19T05:41:48;100376.88;;;19.84;32.48
16664;BME280;8445;51.270;9.434;2023-05-19T05:44:13;100360.56;;;19.78;32.93
16664;BME280;8445;51.270;9.434;2023-05-19T05:46:41;100367.50;;;19.98;32.88
16664;BME280;8445;51.270;9.434;2023-05-19T05:49:07;100364.16;;;20.05;33.06
16664;BME280;8445;51.270;9.434;2023-05-19T05:51:33;100363.63;;;20.19;33.35
16664;BME280;8445;51.270;9.434;2023-05-19T05:54:00;100354.81;;;20.09;33.55
16664;BME280;8445;51.270;9.434;2023-05-19T05:56:33;100363.34;;;20.04;33.81
16664;BME280;8445;51.270;9.434;2023-05-19T05:59:02;100368.84;;;20.03;33.88
16664;BME280;8445;51.270;9.434;2023-05-19T06:01:28;100367.22;;;20.10;33.86
16664;BME280;8445;51.270;9.434;2023-05-19T06:03:55;100363.41;;;20.12;34.03
16664;BME280;8445;51.270;9.434;2023-05-19T06:06:22;100375.38;;;20.00;34.15
16664;BME280;8445;51.270;9.434;2023-05-19T06:08:48;100353.50;;;20.31;33.52
16664;BME280;8445;51.270;9.434;2023-05-19T06:11:14;100357.63;;;20.25;33.76
16664;BME280;8445;51.270;9.434;2023-05-19T06:13:40;100363.94;;;20.61;33.65
16664;BME280;8445;51.270;9.434;2023-05-19T06:16:10;100359.06;;;20.38;33.88
16664;BME280;8445;51.270;9.434;2023-05-19T06:18:42;100348.19;;;20.74;33.68
16664;BME280;8445;51.270;9.434;2023-05-19T06:21:08;100357.34;;;20.81;33.77
16664;BME280;8445;51.270;9.434;2023-05-19T06:23:35;100355.53;;;20.64;34.34
16664;BME280;8445;51.270;9.434;2023-05-19T06:26:02;100361.94;;;20.89;34.26
16664;BME280;8445;51.270;9.434;2023-05-19T06:28:29;100356.53;;;21.24;34.39
16664;BME280;8445;51.270;9.434;2023-05-19T06:30:56;100362.69;;;21.08;34.62
16664;BME280;8445;51.270;9.434;2023-05-19T06:33:31;100358.50;;;21.05;34.93
16664;BME280;8445;51.270;9.434;2023-05-19T06:35:56;100373.00;;;21.21;34.74
16664;BME280;8445;51.270;9.434;2023-05-19T06:38:22;100359.66;;;21.54;34.57
16664;BME280;8445;51.270;9.434;2023-05-19T06:40:50;100352.94;;;21.58;34.61
16664;BME280;8445;51.270;9.434;2023-05-19T06:43:18;100361.50;;;21.53;34.71
16664;BME280;8445;51.270;9.434;2023-05-19T06:45:54;100364.28;;;21.86;34.22
16664;BME280;8445;51.270;9.434;2023-05-19T06:48:21;100351.00;;;21.76;34.21
16664;BME280;8445;51.270;9.434;2023-05-19T06:50:47;100359.25;;;22.16;34.30
16664;BME280;8445;51.270;9.434;2023-05-19T06:53:17;100359.06;;;22.51;34.07
16664;BME280;8445;51.270;9.434;2023-05-19T06:55:43;100352.28;;;22.80;33.78
16664;BME280;8445;51.270;9.434;2023-05-19T06:58:11;100359.19;;;22.74;34.11
16664;BME280;8445;51.270;9.434;2023-05-19T07:00:37;100357.38;;;22.67;33.98
16664;BME280;8445;51.270;9.434;2023-05-19T07:03:05;100344.38;;;23.18;33.70
16664;BME280;8445;51.270;9.434;2023-05-19T07:05:31;100352.00;;;22.50;33.99
16664;BME280;8445;51.270;9.434;2023-05-19T07:07:59;100346.97;;;22.14;34.16
16664;BME280;8445;51.270;9.434;2023-05-19T07:10:27;100351.50;;;22.30;34.23
16664;BME280;8445;51.270;9.434;2023-05-19T07:12:55;100351.00;;;22.26;33.95
16664;BME280;8445;51.270;9.434;2023-05-19T07:15:25;100338.53;;;22.00;34.21
16664;BME280;8445;51.270;9.434;2023-05-19T07:17:51;100341.22;;;21.67;34.45
16664;BME280;8445;51.270;9.434;2023-05-19T07:20:17;100342.25;;;22.08;34.17
16664;BME280;8445;51.270;9.434;2023-05-19T07:22:43;100349.47;;;22.15;34.02
16664;BME280;8445;51.270;9.434;2023-05-19T07:25:09;100335.81;;;22.42;33.63
16664;BME280;8445;51.270;9.434;2023-05-19T07:27:34;100337.97;;;22.71;33.28
16664;BME280;8445;51.270;9.434;2023-05-19T07:30:00;100332.13;;;22.34;33.81
16664;BME280;8445;51.270;9.434;2023-05-19T07:32:26;100331.09;;;22.60;33.40
16664;BME280;8445;51.270;9.434;2023-05-19T07:34:51;100334.50;;;23.02;32.73
16664;BME280;8445;51.270;9.434;2023-05-19T07:37:17;100331.16;;;23.40;32.50
16664;BME280;8445;51.270;9.434;2023-05-19T07:39:42;100331.47;;;23.45;32.39
16664;BME280;8445;51.270;9.434;2023-05-19T07:42:08;100326.81;;;23.31;32.44
16664;BME280;8445;51.270;9.434;2023-05-19T07:44:33;100322.88;;;23.65;32.16
16664;BME280;8445;51.270;9.434;2023-05-19T07:46:59;100327.44;;;23.88;31.97
16664;BME280;8445;51.270;9.434;2023-05-19T07:49:25;100324.84;;;23.71;32.17
16664;BME280;8445;51.270;9.434;2023-05-19T07:51:51;100316.28;;;23.91;32.14
16664;BME280;8445;51.270;9.434;2023-05-19T07:54:16;100315.47;;;23.35;32.69
16664;BME280;8445;51.270;9.434;2023-05-19T07:56:42;100314.41;;;23.91;32.29
16664;BME280;8445;51.270;9.434;2023-05-19T07:59:07;100307.63;;;23.72;32.67
16664;BME280;8445;51.270;9.434;2023-05-19T08:01:33;100316.75;;;23.94;32.04
16664;BME280;8445;51.270;9.434;2023-05-19T08:03:58;100307.09;;;23.77;32.44
16664;BME280;8445;51.270;9.434;2023-05-19T08:06:24;100306.19;;;23.84;32.67
16664;BME280;8445;51.270;9.434;2023-05-19T08:08:50;100309.38;;;24.11;32.37
16664;BME280;8445;51.270;9.434;2023-05-19T08:11:16;100319.22;;;23.26;32.76
16664;BME280;8445;51.270;9.434;2023-05-19T08:13:42;100291.53;;;23.32;33.17
16664;BME280;8445;51.270;9.434;2023-05-19T08:16:08;100297.47;;;23.74;32.74
16664;BME280;8445;51.270;9.434;2023-05-19T08:18:33;100298.63;;;23.57;32.77
16664;BME280;8445;51.270;9.434;2023-05-19T08:20:58;100293.72;;;24.22;31.90
16664;BME280;8445;51.270;9.434;2023-05-19T08:23:24;100299.03;;;23.92;32.16
16664;BME280;8445;51.270;9.434;2023-05-19T08:25:50;100305.81;;;23.09;32.06
16664;BME280;8445;51.270;9.434;2023-05-19T08:28:15;100288.91;;;23.71;32.31
16664;BME280;8445;51.270;9.434;2023-05-19T08:30:41;100298.03;;;23.69;32.36
16664;BME280;8445;51.270;9.434;2023-05-19T08:33:06;100286.03;;;23.72;32.54
16664;BME280;8445;51.270;9.434;2023-05-19T08:35:32;100280.03;;;24.38;31.35
16664;BME280;8445;51.270;9.434;2023-05-19T08:37:58;100292.91;;;24.36;31.24
16664;BME280;8445;51.270;9.434;2023-05-19T08:40:24;100281.53;;;24.56;31.32
16664;BME280;8445;51.270;9.434;2023-05-19T08:42:51;100265.41;;;24.63;31.41
16664;BME280;8445;51.270;9.434;2023-05-19T08:45:18;100268.94;;;24.93;30.91
16664;BME280;8445;51.270;9.434;2023-05-19T08:47:47;100282.00;;;24.75;30.11
16664;BME280;8445;51.270;9.434;2023-05-19T08:50:16;100268.38;;;24.98;30.30
16664;BME280;8445;51.270;9.434;2023-05-19T08:52:55;100266.06;;;25.16;29.72
16664;BME280;8445;51.270;9.434;2023-05-19T08:55:52;100266.81;;;24.74;30.20
16664;BME280;8445;51.270;9.434;2023-05-19T08:58:20;100263.56;;;24.78;31.61
16664;BME280;8445;51.270;9.434;2023-05-19T09:00:46;100257.84;;;24.88;31.77
16664;BME280;8445;51.270;9.434;2023-05-19T09:03:13;100251.13;;;25.21;31.28
16664;BME280;8445;51.270;9.434;2023-05-19T09:05:40;100265.03;;;24.96;31.60
16664;BME280;8445;51.270;9.434;2023-05-19T09:08:06;100254.31;;;25.24;31.18
16664;BME280;8445;51.270;9.434;2023-05-19T09:10:31;100255.56;;;25.94;31.03
16664;BME280;8445;51.270;9.434;2023-05-19T09:12:57;100247.75;;;26.05;30.88
16664;BME280;8445;51.270;9.434;2023-05-19T09:15:26;100252.78;;;26.37;30.90
16664;BME280;8445;51.270;9.434;2023-05-19T09:18:13;100250.41;;;26.62;29.28
16664;BME280;8445;51.270;9.434;2023-05-19T09:20:44;100257.94;;;27.02;30.17
16664;BME280;8445;51.270;9.434;2023-05-19T09:23:16;100251.69;;;27.22;30.12
16664;BME280;8445;51.270;9.434;2023-05-19T09:25:49;100258.91;;;27.90;29.62
16664;BME280;8445;51.270;9.434;2023-05-19T09:33:25;100255.31;;;28.44;29.01
16664;BME280;8445;51.270;9.434;2023-05-19T09:35:53;100252.09;;;28.60;29.29
16664;BME280;8445;51.270;9.434;2023-05-19T09:38:19;100249.81;;;29.09;29.15
16664;BME280;8445;51.270;9.434;2023-05-19T09:40:48;100243.88;;;29.19;28.63
16664;BME280;8445;51.270;9.434;2023-05-19T09:43:15;100237.91;;;29.36;28.95
16664;BME280;8445;51.270;9.434;2023-05-19T09:45:41;100236.59;;;30.02;28.76
16664;BME280;8445;51.270;9.434;2023-05-19T09:48:06;100238.41;;;29.58;29.51
16664;BME280;8445;51.270;9.434;2023-05-19T09:50:32;100239.41;;;30.52;29.15
16664;BME280;8445;51.270;9.434;2023-05-19T09:52:58;100239.69;;;30.06;29.46
16664;BME280;8445;51.270;9.434;2023-05-19T09:55:25;100236.53;;;30.46;29.24
16664;BME280;8445;51.270;9.434;2023-05-19T09:57:54;100233.69;;;31.40;28.78
16664;BME280;8445;51.270;9.434;2023-05-19T10:00:22;100244.81;;;31.81;28.77
16664;BME280;8445;51.270;9.434;2023-05-19T10:02:48;100247.03;;;31.72;28.59
16664;BME280;8445;51.270;9.434;2023-05-19T10:05:19;100238.38;;;32.22;26.23
16664;BME280;8445;51.270;9.434;2023-05-19T10:07:49;100232.44;;;31.90;27.07
16664;BME280;8445;51.270;9.434;2023-05-19T10:10:16;100222.50;;;30.24;28.19
16664;BME280;8445;51.270;9.434;2023-05-19T10:12:42;100215.25;;;29.93;28.09
16664;BME280;8445;51.270;9.434;2023-05-19T10:15:09;100213.66;;;29.60;27.43
16664;BME280;8445;51.270;9.434;2023-05-19T10:17:37;100230.84;;;29.28;28.09
16664;BME280;8445;51.270;9.434;2023-05-19T10:20:05;100229.75;;;28.97;27.51
16664;BME280;8445;51.270;9.434;2023-05-19T10:22:32;100226.88;;;29.24;28.17
16664;BME280;8445;51.270;9.434;2023-05-19T10:24:57;100215.25;;;28.58;28.04
16664;BME280;8445;51.270;9.434;2023-05-19T10:27:24;100224.03;;;29.12;28.00
16664;BME280;8445;51.270;9.434;2023-05-19T10:29:53;100213.59;;;29.41;26.66
16664;BME280;8445;51.270;9.434;2023-05-19T10:32:27;100208.63;;;29.24;26.68
16664;BME280;8445;51.270;9.434;2023-05-19T10:40:27;100204.69;;;29.78;24.79
16664;BME280;8445;51.270;9.434;2023-05-19T10:45:47;100203.03;;;29.77;26.34
16664;BME280;8445;51.270;9.434;2023-05-19T10:48:14;100199.47;;;29.51;26.26
16664;BME280;8445;51.270;9.434;2023-05-19T10:50:43;100192.88;;;29.33;26.14
16664;BME280;8445;51.270;9.434;2023-05-19T10:53:16;100196.25;;;29.61;25.82
16664;BME280;8445;51.270;9.434;2023-05-19T10:55:51;100196.13;;;29.49;25.66
16664;BME280;8445;51.270;9.434;2023-05-19T11:01:15;100194.72;;;29.90;26.26
16664;BME280;8445;51.270;9.434;2023-05-19T11:03:49;100192.50;;;30.24;24.91
16664;BME280;8445;51.270;9.434;2023-05-19T11:06:30;100188.09;;;30.23;23.19
16664;BME280;8445;51.270;9.434;2023-05-19T11:09:17;100185.03;;;30.69;25.14
16664;BME280;8445;51.270;9.434;2023-05-19T11:11:52;100179.25;;;31.50;25.28
16664;BME280;8445;51.270;9.434;2023-05-19T11:14:20;100185.13;;;31.77;25.75
16664;BME280;8445;51.270;9.434;2023-05-19T11:16:49;100190.22;;;31.74;24.61
16664;BME280;8445;51.270;9.434;2023-05-19T11:19:28;100189.13;;;31.63;24.63
16664;BME280;8445;51.270;9.434;2023-05-19T11:21:55;100193.50;;;31.40;25.56
16664;BME280;8445;51.270;9.434;2023-05-19T11:24:47;100181.75;;;31.52;24.01
16664;BME280;8445;51.270;9.434;2023-05-19T11:27:28;100181.03;;;31.02;22.78
16664;BME280;8445;51.270;9.434;2023-05-19T11:29:58;100174.97;;;31.00;25.27
16664;BME280;8445;51.270;9.434;2023-05-19T11:32:26;100174.97;;;31.00;25.54
16664;BME280;8445;51.270;9.434;2023-05-19T11:34:53;100179.13;;;30.72;24.67
16664;BME280;8445;51.270;9.434;2023-05-19T11:37:19;100167.63;;;30.14;25.65
16664;BME280;8445;51.270;9.434;2023-05-19T11:39:45;100173.31;;;30.12;25.21
16664;BME280;8445;51.270;9.434;2023-05-19T11:42:12;100162.69;;;29.60;25.68
16664;BME280;8445;51.270;9.434;2023-05-19T11:44:37;100171.47;;;29.62;25.37
16664;BME280;8445;51.270;9.434;2023-05-19T11:47:05;100165.56;;;29.14;25.43
16664;BME280;8445;51.270;9.434;2023-05-19T11:49:31;100162.84;;;29.65;25.10
16664;BME280;8445;51.270;9.434;2023-05-19T11:51:59;100167.31;;;30.03;24.48
16664;BME280;8445;51.270;9.434;2023-05-19T11:54:29;100166.06;;;28.98;24.81
16664;BME280;8445;51.270;9.434;2023-05-19T11:57:02;100160.16;;;28.23;25.53
16664;BME280;8445;51.270;9.434;2023-05-19T11:59:35;100156.81;;;29.06;24.06
16664;BME280;8445;51.270;9.434;2023-05-19T12:02:21;100164.06;;;28.34;24.24
16664;BME280;8445;51.270;9.434;2023-05-19T12:04:47;100173.13;;;28.08;25.51
16664;BME280;8445;51.270;9.434;2023-05-19T12:07:19;100161.25;;;28.54;25.29
16664;BME280;8445;51.270;9.434;2023-05-19T12:09:47;100156.03;;;27.47;25.75
16664;BME280;8445;51.270;9.434;2023-05-19T12:12:15;100159.09;;;28.04;25.22
16664;BME280;8445;51.270;9.434;2023-05-19T12:14:41;100144.63;;;29.08;24.61
16664;BME280;8445;51.270;9.434;2023-05-19T12:17:14;100155.44;;;29.72;24.30
16664;BME280;8445;51.270;9.434;2023-05-19T12:19:44;100154.78;;;30.02;23.95
16664;BME280;8445;51.270;9.434;2023-05-19T12:22:10;100155.75;;;30.76;24.24
16664;BME280;8445;51.270;9.434;2023-05-19T12:24:37;100154.56;;;31.14;23.86
16664;BME280;8445;51.270;9.434;2023-05-19T12:27:15;100153.31;;;30.86;22.22
16664;BME280;8445;51.270;9.434;2023-05-19T12:29:41;100147.88;;;31.41;23.90
16664;BME280;8445;51.270;9.434;2023-05-19T12:32:07;100146.44;;;31.86;24.37
16664;BME280;8445;51.270;9.434;2023-05-19T12:34:37;100150.88;;;32.40;24.38
16664;BME280;8445;51.270;9.434;2023-05-19T12:37:06;100147.84;;;32.65;24.81
16664;BME280;8445;51.270;9.434;2023-05-19T12:39:32;100137.63;;;32.89;24.59
16664;BME280;8445;51.270;9.434;2023-05-19T12:42:02;100136.47;;;33.19;23.50
16664;BME280;8445;51.270;9.434;2023-05-19T12:44:28;100141.78;;;32.80;24.13
16664;BME280;8445;51.270;9.434;2023-05-19T12:46:56;100141.69;;;32.46;24.75
16664;BME280;8445;51.270;9.434;2023-05-19T12:49:22;100142.63;;;32.80;24.03
16664;BME280;8445;51.270;9.434;2023-05-19T12:51:52;100146.31;;;32.86;24.29
16664;BME280;8445;51.270;9.434;2023-05-19T12:54:19;100154.63;;;32.91;24.68
16664;BME280;8445;51.270;9.434;2023-05-19T12:56:49;100150.00;;;33.09;23.77
16664;BME280;8445;51.270;9.434;2023-05-19T12:59:25;100135.88;;;33.34;22.21
16664;BME280;8445;51.270;9.434;2023-05-19T13:01:57;100135.28;;;33.66;23.34
16664;BME280;8445;51.270;9.434;2023-05-19T13:04:25;100140.50;;;33.68;23.44
16664;BME280;8445;51.270;9.434;2023-05-19T13:06:52;100135.16;;;33.22;23.67
16664;BME280;8445;51.270;9.434;2023-05-19T13:09:18;100138.19;;;33.60;23.33
16664;BME280;8445;51.270;9.434;2023-05-19T13:11:45;100139.25;;;32.61;23.78
16664;BME280;8445;51.270;9.434;2023-05-19T13:14:19;100132.44;;;33.39;23.43
16664;BME280;8445;51.270;9.434;2023-05-19T13:16:45;100133.06;;;33.63;23.75
16664;BME280;8445;51.270;9.434;2023-05-19T13:19:13;100130.63;;;34.51;23.46
16664;BME280;8445;51.270;9.434;2023-05-19T13:21:39;100123.13;;;35.28;23.09
16664;BME280;8445;51.270;9.434;2023-05-19T13:24:04;100130.44;;;34.13;23.50
16664;BME280;8445;51.270;9.434;2023-05-19T13:26:30;100130.75;;;34.17;23.17
16664;BME280;8445;51.270;9.434;2023-05-19T13:28:55;100126.88;;;34.35;23.05
16664;BME280;8445;51.270;9.434;2023-05-19T13:31:21;100125.72;;;34.31;22.65
16664;BME280;8445;51.270;9.434;2023-05-19T13:33:46;100117.59;;;34.19;22.65